sensor_id;sensor_type;location;lat;lon;timestamp;pressure;altitude;pressure_sealevel;temperature;humidity
8061;BME280;4073;42.626;25.386;2022-12-11T00:02:03;95502.16;;;14.48;100.00
8061;BME280;4073;42.626;25.386;2022-12-11T00:04:29;95488.28;;;14.46;100.00
8061;BME280;4073;42.626;25.386;2022-12-11T00:06:54;95492.41;;;14.44;100.00
8061;BME280;4073;42.626;25.386;2022-12-11T00:09:20;95476.28;;;14.44;100.00
8061;BME280;4073;42.626;25.386;2022-12-11T00:11:46;95471.81;;;14.36;100.00
8061;BME280;4073;42.626;25.386;2022-12-11T00:14:12;95463.19;;;14.42;100.00
8061;BME280;4073;42.626;25.386;2022-12-11T00:16:38;95465.88;;;14.42;100.00
8061;BME280;4073;42.626;25.386;2022-12-11T00:19:04;95452.53;;;14.46;100.00
8061;BME280;4073;42.626;25.386;2022-12-11T00:21:29;95465.31;;;14.49;100.00
8061;BME280;4073;42.626;25.386;2022-12-11T00:23:55;95455.69;;;14.48;100.00
8061;BME280;4073;42.626;25.386;2022-12-11T00:26:21;95468.00;;;14.49;100.00
8061;BME280;4073;42.626;25.386;2022-12-11T00:28:47;95456.34;;;14.45;100.00
8061;BME280;4073;42.626;25.386;2022-12-11T00:31:17;95447.06;;;14.42;100.00
8061;BME280;4073;42.626;25.386;2022-12-11T00:33:44;95447.28;;;14.49;100.00
8061;BME280;4073;42.626;25.386;2022-12-11T00:36:11;95466.53;;;14.51;100.00
8061;BME280;4073;42.626;25.386;2022-12-11T00:38:37;95444.00;;;14.56;100.00
8061;BME280;4073;42.626;25.386;2022-12-11T00:41:03;95467.41;;;14.55;100.00
8061;BME280;4073;42.626;25.386;2022-12-11T00:43:28;95453.44;;;14.50;100.00
8061;BME280;4073;42.626;25.386;2022-12-11T00:45:54;95437.06;;;14.55;100.00
8061;BME280;4073;42.626;25.386;2022-12-11T00:48:19;95444.13;;;14.59;100.00
8061;BME280;4073;42.626;25.386;2022-12-11T00:50:45;95438.97;;;14.66;100.00
8061;BME280;4073;42.626;25.386;2022-12-11T00:53:10;95410.28;;;14.70;100.00
8061;BME280;4073;42.626;25.386;2022-12-11T00:55:38;95406.22;;;14.76;100.00
8061;BME280;4073;42.626;25.386;2022-12-11T00:58:04;95390.19;;;14.80;100.00
8061;BME280;4073;42.626;25.386;2022-12-11T01:00:29;95407.53;;;14.82;100.00
8061;BME280;4073;42.626;25.386;2022-12-11T01:02:55;95403.06;;;14.86;100.00
8061;BME280;4073;42.626;25.386;2022-12-11T01:05:20;95381.88;;;14.85;100.00
8061;BME280;4073;42.626;25.386;2022-12-11T01:07:46;95364.63;;;14.86;100.00
8061;BME280;4073;42.626;25.386;2022-12-11T01:10:12;95355.41;;;14.87;100.00
8061;BME280;4073;42.626;25.386;2022-12-11T01:15:24;95334.34;;;14.89;100.00
8061;BME280;4073;42.626;25.386;2022-12-11T01:17:50;95342.31;;;14.85;100.00
8061;BME280;4073;42.626;25.386;2022-12-11T01:20:17;95337.03;;;14.89;100.00
8061;BME280;4073;42.626;25.386;2022-12-11T01:22:43;95331.53;;;14.85;100.00
8061;BME280;4073;42.626;25.386;2022-12-11T01:25:08;95320.44;;;14.87;100.00
8061;BME280;4073;42.626;25.386;2022-12-11T01:27:35;95333.75;;;14.95;100.00
8061;BME280;4073;42.626;25.386;2022-12-11T01:30:00;95350.00;;;14.99;100.00
8061;BME280;4073;42.626;25.386;2022-12-11T01:32:27;95355.38;;;14.99;100.00
8061;BME280;4073;42.626;25.386;2022-12-11T01:34:53;95336.53;;;14.99;100.00
8061;BME280;4073;42.626;25.386;2022-12-11T01:37:18;95329.56;;;14.98;100.00
8061;BME280;4073;42.626;25.386;2022-12-11T01:39:44;95318.81;;;14.98;100.00
8061;BME280;4073;42.626;25.386;2022-12-11T01:42:14;95329.75;;;15.05;100.00
8061;BME280;4073;42.626;25.386;2022-12-11T01:47:06;95305.75;;;15.12;100.00
8061;BME280;4073;42.626;25.386;2022-12-11T01:49:32;95308.53;;;15.15;100.00
8061;BME280;4073;42.626;25.386;2022-12-11T01:54:26;95307.56;;;15.23;100.00
8061;BME280;4073;42.626;25.386;2022-12-11T01:56:55;95299.44;;;15.20;100.00
8061;BME280;4073;42.626;25.386;2022-12-11T01:59:26;95282.59;;;15.23;100.00
8061;BME280;4073;42.626;25.386;2022-12-11T02:01:57;95290.50;;;15.31;100.00
8061;BME280;4073;42.626;25.386;2022-12-11T02:04:25;95265.34;;;15.39;100.00
8061;BME280;4073;42.626;25.386;2022-12-11T02:06:52;95260.75;;;15.40;100.00
8061;BME280;4073;42.626;25.386;2022-12-11T02:09:23;95278.91;;;15.43;100.00
8061;BME280;4073;42.626;25.386;2022-12-11T02:14:52;95258.41;;;15.54;100.00
8061;BME280;4073;42.626;25.386;2022-12-11T02:25:50;95214.16;;;15.71;100.00
8061;BME280;4073;42.626;25.386;2022-12-11T02:31:09;95236.94;;;15.73;100.00
8061;BME280;4073;42.626;25.386;2022-12-11T02:33:47;95223.47;;;15.73;100.00
8061;BME280;4073;42.626;25.386;2022-12-11T02:36:16;95215.56;;;15.65;100.00
8061;BME280;4073;42.626;25.386;2022-12-11T02:38:44;95217.53;;;15.68;100.00
8061;BME280;4073;42.626;25.386;2022-12-11T02:41:17;95222.22;;;15.71;100.00
8061;BME280;4073;42.626;25.386;2022-12-11T02:43:45;95219.38;;;15.64;100.00
8061;BME280;4073;42.626;25.386;2022-12-11T02:46:13;95233.00;;;15.71;100.00
8061;BME280;4073;42.626;25.386;2022-12-11T02:48:40;95202.16;;;15.68;100.00
8061;BME280;4073;42.626;25.386;2022-12-11T02:51:07;95208.69;;;15.67;100.00
8061;BME280;4073;42.626;25.386;2022-12-11T02:53:36;95218.84;;;15.74;100.00
8061;BME280;4073;42.626;25.386;2022-12-11T02:56:21;95217.03;;;15.62;100.00
8061;BME280;4073;42.626;25.386;2022-12-11T02:58:53;95197.75;;;15.60;100.00
8061;BME280;4073;42.626;25.386;2022-12-11T03:01:19;95217.69;;;15.75;100.00
8061;BME280;4073;42.626;25.386;2022-12-11T03:03:45;95188.50;;;15.77;100.00
8061;BME280;4073;42.626;25.386;2022-12-11T03:06:15;95197.78;;;15.79;100.00
8061;BME280;4073;42.626;25.386;2022-12-11T03:08:43;95200.34;;;15.72;100.00
8061;BME280;4073;42.626;25.386;2022-12-11T03:11:10;95183.91;;;15.77;100.00
8061;BME280;4073;42.626;25.386;2022-12-11T03:13:36;95191.28;;;15.80;100.00
8061;BME280;4073;42.626;25.386;2022-12-11T03:21:49;95184.91;;;15.88;100.00
8061;BME280;4073;42.626;25.386;2022-12-11T03:24:27;95191.34;;;15.84;100.00
8061;BME280;4073;42.626;25.386;2022-12-11T03:27:06;95216.31;;;15.81;100.00
8061;BME280;4073;42.626;25.386;2022-12-11T03:29:36;95207.72;;;15.75;100.00
8061;BME280;4073;42.626;25.386;2022-12-11T03:32:12;95216.25;;;15.77;100.00
8061;BME280;4073;42.626;25.386;2022-12-11T03:34:56;95202.47;;;15.82;100.00
8061;BME280;4073;42.626;25.386;2022-12-11T03:37:25;95200.63;;;15.86;100.00
8061;BME280;4073;42.626;25.386;2022-12-11T03:39:57;95189.88;;;15.86;100.00
8061;BME280;4073;42.626;25.386;2022-12-11T03:42:25;95200.22;;;15.84;100.00
8061;BME280;4073;42.626;25.386;2022-12-11T03:44:53;95186.59;;;15.77;100.00
8061;BME280;4073;42.626;25.386;2022-12-11T03:47:23;95190.75;;;15.75;100.00
8061;BME280;4073;42.626;25.386;2022-12-11T03:49:51;95212.31;;;15.75;100.00
8061;BME280;4073;42.626;25.386;2022-12-11T03:52:18;95198.78;;;15.71;100.00
8061;BME280;4073;42.626;25.386;2022-12-11T03:54:46;95210.34;;;15.72;100.00
8061;BME280;4073;42.626;25.386;2022-12-11T03:57:16;95194.09;;;15.68;100.00
8061;BME280;4073;42.626;25.386;2022-12-11T03:59:43;95206.84;;;15.71;100.00
8061;BME280;4073;42.626;25.386;2022-12-11T04:02:09;95216.50;;;15.72;100.00
8061;BME280;4073;42.626;25.386;2022-12-11T04:04:39;95213.53;;;15.77;100.00
8061;BME280;4073;42.626;25.386;2022-12-11T04:07:05;95228.84;;;15.73;100.00
8061;BME280;4073;42.626;25.386;2022-12-11T04:09:31;95219.47;;;15.67;100.00
8061;BME280;4073;42.626;25.386;2022-12-11T04:11:56;95211.25;;;15.79;100.00
8061;BME280;4073;42.626;25.386;2022-12-11T04:14:22;95188.84;;;15.75;100.00
8061;BME280;4073;42.626;25.386;2022-12-11T04:17:06;95195.53;;;15.81;100.00
8061;BME280;4073;42.626;25.386;2022-12-11T04:19:31;95192.84;;;15.81;100.00
8061;BME280;4073;42.626;25.386;2022-12-11T04:22:16;95189.72;;;15.79;100.00
8061;BME280;4073;42.626;25.386;2022-12-11T04:25:02;95183.91;;;15.77;100.00
8061;BME280;4073;42.626;25.386;2022-12-11T04:27:28;95189.31;;;15.77;100.00
8061;BME280;4073;42.626;25.386;2022-12-11T04:30:16;95197.91;;;15.67;100.00
8061;BME280;4073;42.626;25.386;2022-12-11T04:32:42;95199.75;;;15.63;100.00
8061;BME280;4073;42.626;25.386;2022-12-11T04:35:09;95199.06;;;15.50;100.00
8061;BME280;4073;42.626;25.386;2022-12-11T04:37:35;95204.03;;;15.48;100.00
8061;BME280;4073;42.626;25.386;2022-12-11T04:40:01;95210.00;;;15.42;100.00
8061;BME280;4073;42.626;25.386;2022-12-11T04:42:26;95228.78;;;15.38;100.00
8061;BME280;4073;42.626;25.386;2022-12-11T04:44:52;95230.13;;;15.32;100.00
8061;BME280;4073;42.626;25.386;2022-12-11T04:47:17;95225.03;;;15.27;100.00
8061;BME280;4073;42.626;25.386;2022-12-11T04:49:43;95229.78;;;15.18;100.00
8061;BME280;4073;42.626;25.386;2022-12-11T04:52:08;95226.25;;;15.14;100.00
8061;BME280;4073;42.626;25.386;2022-12-11T04:54:34;95218.59;;;15.16;100.00
8061;BME280;4073;42.626;25.386;2022-12-11T04:56:59;95224.06;;;15.20;100.00
8061;BME280;4073;42.626;25.386;2022-12-11T04:59:25;95215.66;;;15.21;100.00
8061;BME280;4073;42.626;25.386;2022-12-11T05:01:50;95204.19;;;15.24;100.00
8061;BME280;4073;42.626;25.386;2022-12-11T05:04:15;95205.47;;;15.30;100.00
8061;BME280;4073;42.626;25.386;2022-12-11T05:06:41;95213.19;;;15.32;100.00
8061;BME280;4073;42.626;25.386;2022-12-11T05:09:10;95218.06;;;15.26;100.00
8061;BME280;4073;42.626;25.386;2022-12-11T05:11:36;95223.91;;;15.28;100.00
8061;BME280;4073;42.626;25.386;2022-12-11T05:14:01;95223.63;;;15.33;100.00
8061;BME280;4073;42.626;25.386;2022-12-11T05:16:27;95216.59;;;15.29;100.00
8061;BME280;4073;42.626;25.386;2022-12-11T05:18:53;95233.63;;;15.33;100.00
8061;BME280;4073;42.626;25.386;2022-12-11T05:21:18;95242.59;;;15.37;100.00
8061;BME280;4073;42.626;25.386;2022-12-11T05:23:44;95249.13;;;15.36;100.00
8061;BME280;4073;42.626;25.386;2022-12-11T05:26:15;95260.53;;;15.33;100.00
8061;BME280;4073;42.626;25.386;2022-12-11T05:28:42;95249.44;;;15.34;100.00
8061;BME280;4073;42.626;25.386;2022-12-11T05:31:14;95260.66;;;15.36;100.00
8061;BME280;4073;42.626;25.386;2022-12-11T05:33:42;95245.59;;;15.35;100.00
8061;BME280;4073;42.626;25.386;2022-12-11T05:36:07;95247.78;;;15.30;100.00
8061;BME280;4073;42.626;25.386;2022-12-11T05:38:33;95256.63;;;15.30;100.00
8061;BME280;4073;42.626;25.386;2022-12-11T05:41:04;95258.53;;;15.30;100.00
8061;BME280;4073;42.626;25.386;2022-12-11T05:43:32;95260.03;;;15.27;100.00
8061;BME280;4073;42.626;25.386;2022-12-11T05:46:09;95264.66;;;15.42;100.00
8061;BME280;4073;42.626;25.386;2022-12-11T05:48:35;95272.38;;;15.44;100.00
8061;BME280;4073;42.626;25.386;2022-12-11T05:51:02;95278.91;;;15.43;100.00
8061;BME280;4073;42.626;25.386;2022-12-11T05:53:28;95286.28;;;15.46;100.00
8061;BME280;4073;42.626;25.386;2022-12-11T05:55:59;95284.72;;;15.45;100.00
8061;BME280;4073;42.626;25.386;2022-12-11T05:58:25;95283.84;;;15.41;100.00
8061;BME280;4073;42.626;25.386;2022-12-11T06:00:50;95297.47;;;15.48;100.00
8061;BME280;4073;42.626;25.386;2022-12-11T06:03:16;95294.09;;;15.51;100.00
8061;BME280;4073;42.626;25.386;2022-12-11T06:05:41;95278.13;;;15.42;100.00
8061;BME280;4073;42.626;25.386;2022-12-11T06:08:07;95294.28;;;15.58;100.00
8061;BME280;4073;42.626;25.386;2022-12-11T06:10:33;95299.31;;;15.60;100.00
8061;BME280;4073;42.626;25.386;2022-12-11T06:12:58;95289.22;;;15.57;100.00
8061;BME280;4073;42.626;25.386;2022-12-11T06:15:24;95302.28;;;15.70;100.00
8061;BME280;4073;42.626;25.386;2022-12-11T06:17:49;95300.50;;;15.78;100.00
8061;BME280;4073;42.626;25.386;2022-12-11T06:20:15;95304.63;;;15.87;100.00
8061;BME280;4073;42.626;25.386;2022-12-11T06:22:40;95315.97;;;15.96;100.00
8061;BME280;4073;42.626;25.386;2022-12-11T06:25:06;95311.97;;;16.06;100.00
8061;BME280;4073;42.626;25.386;2022-12-11T06:27:31;95325.28;;;16.49;100.00
8061;BME280;4073;42.626;25.386;2022-12-11T06:29:57;95345.59;;;17.38;100.00
8061;BME280;4073;42.626;25.386;2022-12-11T06:32:22;95349.09;;;18.55;100.00
8061;BME280;4073;42.626;25.386;2022-12-11T06:34:47;95359.91;;;20.16;100.00
8061;BME280;4073;42.626;25.386;2022-12-11T06:37:13;95366.47;;;21.41;100.00
8061;BME280;4073;42.626;25.386;2022-12-11T06:39:38;95377.09;;;21.81;100.00
8061;BME280;4073;42.626;25.386;2022-12-11T06:42:04;95365.66;;;21.37;100.00
8061;BME280;4073;42.626;25.386;2022-12-11T06:44:29;95369.53;;;20.14;100.00
8061;BME280;4073;42.626;25.386;2022-12-11T06:46:55;95363.13;;;19.19;100.00
8061;BME280;4073;42.626;25.386;2022-12-11T06:49:20;95374.69;;;18.87;100.00
8061;BME280;4073;42.626;25.386;2022-12-11T06:51:46;95365.97;;;18.71;100.00
8061;BME280;4073;42.626;25.386;2022-12-11T06:54:12;95392.50;;;19.17;100.00
8061;BME280;4073;42.626;25.386;2022-12-11T06:56:37;95383.38;;;19.65;100.00
8061;BME280;4073;42.626;25.386;2022-12-11T06:59:03;95371.97;;;19.82;100.00
8061;BME280;4073;42.626;25.386;2022-12-11T07:01:28;95364.94;;;19.78;100.00
8061;BME280;4073;42.626;25.386;2022-12-11T07:03:58;95359.66;;;19.22;100.00
8061;BME280;4073;42.626;25.386;2022-12-11T07:06:25;95364.63;;;18.58;100.00
8061;BME280;4073;42.626;25.386;2022-12-11T07:08:51;95365.53;;;17.94;100.00
8061;BME280;4073;42.626;25.386;2022-12-11T07:11:18;95369.28;;;17.44;100.00
8061;BME280;4073;42.626;25.386;2022-12-11T07:13:44;95359.41;;;17.14;100.00
8061;BME280;4073;42.626;25.386;2022-12-11T07:16:11;95346.47;;;16.85;100.00
8061;BME280;4073;42.626;25.386;2022-12-11T07:18:38;95348.44;;;16.69;100.00
8061;BME280;4073;42.626;25.386;2022-12-11T07:21:05;95342.06;;;16.58;100.00
8061;BME280;4073;42.626;25.386;2022-12-11T07:23:32;95345.81;;;16.53;100.00
8061;BME280;4073;42.626;25.386;2022-12-11T07:26:03;95347.16;;;16.63;100.00
8061;BME280;4073;42.626;25.386;2022-12-11T07:28:28;95344.31;;;17.51;100.00
8061;BME280;4073;42.626;25.386;2022-12-11T07:30:54;95354.94;;;18.83;100.00
8061;BME280;4073;42.626;25.386;2022-12-11T07:33:19;95354.25;;;20.42;100.00
8061;BME280;4073;42.626;25.386;2022-12-11T07:35:45;95365.78;;;21.83;100.00
8061;BME280;4073;42.626;25.386;2022-12-11T07:38:10;95368.19;;;22.40;73.30
8061;BME280;4073;42.626;25.386;2022-12-11T07:40:36;95378.66;;;22.38;71.98
8061;BME280;4073;42.626;25.386;2022-12-11T07:43:01;95384.50;;;22.33;71.76
8061;BME280;4073;42.626;25.386;2022-12-11T07:45:27;95383.34;;;22.77;70.23
8061;BME280;4073;42.626;25.386;2022-12-11T07:47:52;95388.09;;;23.73;66.49
8061;BME280;4073;42.626;25.386;2022-12-11T07:50:18;95385.03;;;24.76;62.62
8061;BME280;4073;42.626;25.386;2022-12-11T07:52:43;95394.56;;;25.39;60.10
8061;BME280;4073;42.626;25.386;2022-12-11T07:55:09;95385.44;;;26.09;57.33
8061;BME280;4073;42.626;25.386;2022-12-11T07:57:35;95386.59;;;28.05;52.58
8061;BME280;4073;42.626;25.386;2022-12-11T08:00:01;95385.78;;;28.72;49.22
8061;BME280;4073;42.626;25.386;2022-12-11T08:02:26;95394.31;;;28.62;48.38
8061;BME280;4073;42.626;25.386;2022-12-11T08:04:52;95400.50;;;26.74;52.79
8061;BME280;4073;42.626;25.386;2022-12-11T08:07:17;95393.41;;;24.99;57.70
8061;BME280;4073;42.626;25.386;2022-12-11T08:09:42;95392.53;;;23.35;63.33
8061;BME280;4073;42.626;25.386;2022-12-11T08:12:08;95389.53;;;21.96;68.49
8061;BME280;4073;42.626;25.386;2022-12-11T08:14:33;95388.00;;;20.99;73.22
8061;BME280;4073;42.626;25.386;2022-12-11T08:16:59;95382.13;;;20.36;76.51
8061;BME280;4073;42.626;25.386;2022-12-11T08:19:27;95378.81;;;19.73;79.65
8061;BME280;4073;42.626;25.386;2022-12-11T08:21:52;95380.19;;;19.23;82.88
8061;BME280;4073;42.626;25.386;2022-12-11T08:24:18;95378.94;;;18.84;85.36
8061;BME280;4073;42.626;25.386;2022-12-11T08:26:46;95368.91;;;18.59;87.78
8061;BME280;4073;42.626;25.386;2022-12-11T08:29:11;95368.06;;;18.55;88.41
8061;BME280;4073;42.626;25.386;2022-12-11T08:31:38;95371.09;;;18.50;89.37
8061;BME280;4073;42.626;25.386;2022-12-11T08:34:04;95367.72;;;18.86;87.64
8061;BME280;4073;42.626;25.386;2022-12-11T08:36:30;95369.47;;;19.30;84.90
8061;BME280;4073;42.626;25.386;2022-12-11T08:38:55;95362.53;;;19.69;82.49
8061;BME280;4073;42.626;25.386;2022-12-11T08:43:48;95369.72;;;19.22;84.40
8061;BME280;4073;42.626;25.386;2022-12-11T08:46:14;95364.41;;;18.99;85.78
8061;BME280;4073;42.626;25.386;2022-12-11T08:48:41;95360.75;;;18.85;86.71
8061;BME280;4073;42.626;25.386;2022-12-11T08:51:10;95350.88;;;18.70;87.29
8061;BME280;4073;42.626;25.386;2022-12-11T08:53:36;95344.22;;;18.64;87.83
8061;BME280;4073;42.626;25.386;2022-12-11T08:56:08;95323.03;;;18.69;87.49
8061;BME280;4073;42.626;25.386;2022-12-11T08:58:34;95324.41;;;19.52;84.33
8061;BME280;4073;42.626;25.386;2022-12-11T09:01:05;95323.69;;;21.28;75.32
8061;BME280;4073;42.626;25.386;2022-12-11T09:03:30;95330.47;;;22.32;69.74
8061;BME280;4073;42.626;25.386;2022-12-11T09:05:56;95340.88;;;21.70;70.94
8061;BME280;4073;42.626;25.386;2022-12-11T09:08:21;95341.53;;;21.18;73.35
8061;BME280;4073;42.626;25.386;2022-12-11T09:10:46;95342.34;;;21.36;72.83
8061;BME280;4073;42.626;25.386;2022-12-11T09:13:12;95356.38;;;21.45;72.60
8061;BME280;4073;42.626;25.386;2022-12-11T09:15:40;95367.16;;;21.17;73.21
8061;BME280;4073;42.626;25.386;2022-12-11T09:18:06;95369.44;;;21.08;73.81
8061;BME280;4073;42.626;25.386;2022-12-11T09:20:31;95356.50;;;20.91;73.96
8061;BME280;4073;42.626;25.386;2022-12-11T09:22:57;95345.69;;;20.98;73.85
8061;BME280;4073;42.626;25.386;2022-12-11T09:25:22;95336.88;;;21.22;73.14
8061;BME280;4073;42.626;25.386;2022-12-11T09:27:48;95333.09;;;21.58;72.06
8061;BME280;4073;42.626;25.386;2022-12-11T09:30:13;95338.22;;;22.40;68.86
8061;BME280;4073;42.626;25.386;2022-12-11T09:32:39;95332.38;;;22.73;66.52
8061;BME280;4073;42.626;25.386;2022-12-11T09:35:05;95336.66;;;22.74;66.41
8061;BME280;4073;42.626;25.386;2022-12-11T09:37:32;95331.19;;;22.85;65.59
8061;BME280;4073;42.626;25.386;2022-12-11T09:39:57;95339.34;;;22.89;64.97
8061;BME280;4073;42.626;25.386;2022-12-11T09:42:51;95337.47;;;22.36;66.58
8061;BME280;4073;42.626;25.386;2022-12-11T09:45:17;95341.72;;;21.78;67.95
8061;BME280;4073;42.626;25.386;2022-12-11T09:47:45;95333.09;;;21.51;69.05
8061;BME280;4073;42.626;25.386;2022-12-11T09:50:25;95328.03;;;21.57;68.66
8061;BME280;4073;42.626;25.386;2022-12-11T09:53:12;95323.84;;;21.80;64.25
8061;BME280;4073;42.626;25.386;2022-12-11T09:56:04;95320.34;;;21.97;62.16
8061;BME280;4073;42.626;25.386;2022-12-11T10:01:34;95317.25;;;22.41;59.33
8061;BME280;4073;42.626;25.386;2022-12-11T10:04:21;95300.00;;;22.93;58.41
8061;BME280;4073;42.626;25.386;2022-12-11T10:07:16;95296.78;;;23.23;56.15
8061;BME280;4073;42.626;25.386;2022-12-11T10:09:50;95291.97;;;23.51;54.50
8061;BME280;4073;42.626;25.386;2022-12-11T10:12:40;95285.88;;;23.88;54.35
8061;BME280;4073;42.626;25.386;2022-12-11T10:17:57;95279.66;;;23.26;53.76
8061;BME280;4073;42.626;25.386;2022-12-11T10:20:34;95284.84;;;22.89;55.26
8061;BME280;4073;42.626;25.386;2022-12-11T10:23:02;95286.13;;;22.42;55.72
8061;BME280;4073;42.626;25.386;2022-12-11T10:25:35;95281.50;;;21.90;58.06
8061;BME280;4073;42.626;25.386;2022-12-11T10:28:10;95291.53;;;21.65;57.65
8061;BME280;4073;42.626;25.386;2022-12-11T10:30:40;95283.38;;;21.47;58.70
8061;BME280;4073;42.626;25.386;2022-12-11T10:33:19;95272.06;;;21.24;59.31
8061;BME280;4073;42.626;25.386;2022-12-11T10:38:15;95299.97;;;21.07;64.82
8061;BME280;4073;42.626;25.386;2022-12-11T10:40:43;95296.81;;;20.95;68.36
8061;BME280;4073;42.626;25.386;2022-12-11T10:43:09;95297.47;;;20.81;69.87
8061;BME280;4073;42.626;25.386;2022-12-11T10:45:35;95282.59;;;20.51;71.66
8061;BME280;4073;42.626;25.386;2022-12-11T10:48:10;95278.66;;;20.41;72.77
8061;BME280;4073;42.626;25.386;2022-12-11T10:50:37;95285.88;;;20.19;73.72
8061;BME280;4073;42.626;25.386;2022-12-11T10:53:02;95284.53;;;19.96;74.87
8061;BME280;4073;42.626;25.386;2022-12-11T10:55:31;95278.09;;;19.67;76.10
8061;BME280;4073;42.626;25.386;2022-12-11T10:58:04;95274.78;;;19.44;76.34
8061;BME280;4073;42.626;25.386;2022-12-11T11:00:36;95270.22;;;19.19;77.72
8061;BME280;4073;42.626;25.386;2022-12-11T11:03:26;95267.72;;;19.00;78.65
8061;BME280;4073;42.626;25.386;2022-12-11T11:08:43;95257.56;;;18.90;79.63
8061;BME280;4073;42.626;25.386;2022-12-11T11:13:48;95255.44;;;18.76;79.65
8061;BME280;4073;42.626;25.386;2022-12-11T11:16:17;95250.81;;;18.77;79.46
8061;BME280;4073;42.626;25.386;2022-12-11T11:18:54;95237.56;;;18.68;79.65
8061;BME280;4073;42.626;25.386;2022-12-11T11:21:22;95240.34;;;18.75;79.79
8061;BME280;4073;42.626;25.386;2022-12-11T11:23:49;95231.09;;;18.76;79.38
8061;BME280;4073;42.626;25.386;2022-12-11T11:26:15;95234.66;;;18.84;79.27
8061;BME280;4073;42.626;25.386;2022-12-11T11:28:48;95237.50;;;18.94;78.70
8061;BME280;4073;42.626;25.386;2022-12-11T11:31:15;95215.91;;;19.01;78.57
8061;BME280;4073;42.626;25.386;2022-12-11T11:34:03;95229.25;;;19.60;77.05
8061;BME280;4073;42.626;25.386;2022-12-11T11:36:32;95221.34;;;19.92;74.03
8061;BME280;4073;42.626;25.386;2022-12-11T11:39:28;95234.44;;;20.33;73.02
8061;BME280;4073;42.626;25.386;2022-12-11T11:42:12;95230.09;;;21.04;70.41
8061;BME280;4073;42.626;25.386;2022-12-11T11:45:13;95237.09;;;21.16;69.94
8061;BME280;4073;42.626;25.386;2022-12-11T11:47:47;95228.06;;;20.87;71.06
8061;BME280;4073;42.626;25.386;2022-12-11T11:50:18;95225.25;;;20.63;71.57
8061;BME280;4073;42.626;25.386;2022-12-11T11:52:52;95234.88;;;20.46;71.14
8061;BME280;4073;42.626;25.386;2022-12-11T11:58:16;95238.13;;;20.08;72.95
8061;BME280;4073;42.626;25.386;2022-12-11T12:00:44;95239.59;;;19.95;73.73
8061;BME280;4073;42.626;25.386;2022-12-11T12:03:15;95234.44;;;19.83;75.08
8061;BME280;4073;42.626;25.386;2022-12-11T12:05:58;95229.38;;;19.78;75.85
8061;BME280;4073;42.626;25.386;2022-12-11T12:08:53;95239.41;;;19.74;76.08
8061;BME280;4073;42.626;25.386;2022-12-11T12:11:39;95237.38;;;19.60;76.84
8061;BME280;4073;42.626;25.386;2022-12-11T12:27:58;95236.03;;;20.42;73.12
8061;BME280;4073;42.626;25.386;2022-12-11T12:30:33;95230.56;;;20.34;72.76
8061;BME280;4073;42.626;25.386;2022-12-11T12:35:54;95224.22;;;20.13;72.63
8061;BME280;4073;42.626;25.386;2022-12-11T12:43:55;95209.69;;;20.49;69.65
8061;BME280;4073;42.626;25.386;2022-12-11T12:46:33;95212.81;;;20.55;70.54
8061;BME280;4073;42.626;25.386;2022-12-11T12:49:03;95196.84;;;20.42;71.03
8061;BME280;4073;42.626;25.386;2022-12-11T12:51:29;95214.56;;;20.19;71.84
8061;BME280;4073;42.626;25.386;2022-12-11T12:54:01;95208.50;;;19.82;73.23
8061;BME280;4073;42.626;25.386;2022-12-11T12:56:29;95207.25;;;19.69;74.79
8061;BME280;4073;42.626;25.386;2022-12-11T12:58:56;95210.22;;;19.57;76.17
8061;BME280;4073;42.626;25.386;2022-12-11T13:01:24;95216.44;;;19.17;78.33
8061;BME280;4073;42.626;25.386;2022-12-11T13:03:54;95216.41;;;19.14;79.33
8061;BME280;4073;42.626;25.386;2022-12-11T13:11:37;95199.69;;;19.05;81.39
8061;BME280;4073;42.626;25.386;2022-12-11T13:14:07;95201.59;;;19.04;81.54
8061;BME280;4073;42.626;25.386;2022-12-11T13:16:48;95197.25;;;18.93;82.08
8061;BME280;4073;42.626;25.386;2022-12-11T13:21:56;95192.06;;;18.77;83.54
8061;BME280;4073;42.626;25.386;2022-12-11T13:26:48;95188.94;;;18.75;84.50
8061;BME280;4073;42.626;25.386;2022-12-11T13:29:35;95193.97;;;18.77;84.47
8061;BME280;4073;42.626;25.386;2022-12-11T13:32:19;95192.13;;;18.84;84.29
8061;BME280;4073;42.626;25.386;2022-12-11T13:34:56;95194.63;;;19.00;83.10
8061;BME280;4073;42.626;25.386;2022-12-11T13:37:35;95178.38;;;19.00;81.69
8061;BME280;4073;42.626;25.386;2022-12-11T13:40:27;95189.28;;;19.10;79.19
8061;BME280;4073;42.626;25.386;2022-12-11T13:43:01;95193.88;;;19.06;78.98
8061;BME280;4073;42.626;25.386;2022-12-11T13:45:33;95183.78;;;19.00;79.14
8061;BME280;4073;42.626;25.386;2022-12-11T13:48:01;95184.41;;;18.86;79.77
8061;BME280;4073;42.626;25.386;2022-12-11T13:50:33;95184.25;;;18.72;80.37
8061;BME280;4073;42.626;25.386;2022-12-11T13:53:00;95194.59;;;18.63;80.98
8061;BME280;4073;42.626;25.386;2022-12-11T13:55:32;95193.38;;;18.57;80.76
8061;BME280;4073;42.626;25.386;2022-12-11T13:57:58;95192.09;;;18.48;81.60
8061;BME280;4073;42.626;25.386;2022-12-11T14:00:28;95198.50;;;18.36;82.30
8061;BME280;4073;42.626;25.386;2022-12-11T14:02:58;95196.53;;;18.33;82.59
8061;BME280;4073;42.626;25.386;2022-12-11T14:05:26;95215.34;;;18.26;82.46
8061;BME280;4073;42.626;25.386;2022-12-11T14:07:54;95206.75;;;18.17;83.04
8061;BME280;4073;42.626;25.386;2022-12-11T14:10:26;95207.03;;;18.09;83.67
8061;BME280;4073;42.626;25.386;2022-12-11T14:15:24;95213.34;;;17.93;85.04
8061;BME280;4073;42.626;25.386;2022-12-11T14:17:50;95195.81;;;17.80;85.59
8061;BME280;4073;42.626;25.386;2022-12-11T14:20:19;95206.31;;;17.85;85.98
8061;BME280;4073;42.626;25.386;2022-12-11T14:22:46;95210.06;;;17.77;86.88
8061;BME280;4073;42.626;25.386;2022-12-11T14:25:24;95202.69;;;17.74;87.10
8061;BME280;4073;42.626;25.386;2022-12-11T14:27:54;95211.94;;;17.73;87.36
8061;BME280;4073;42.626;25.386;2022-12-11T14:32:47;95221.41;;;17.64;86.86
8061;BME280;4073;42.626;25.386;2022-12-11T14:35:26;95206.19;;;17.52;86.71
8061;BME280;4073;42.626;25.386;2022-12-11T14:37:53;95190.88;;;17.37;87.54
8061;BME280;4073;42.626;25.386;2022-12-11T14:40:23;95205.94;;;17.38;87.02